createdAt,value
2022-08-30T00:01:25.455Z,14.00
2022-08-30T00:03:55.112Z,14.00
2022-08-30T00:06:23.036Z,14.00
2022-08-30T00:08:51.779Z,14.00
2022-08-30T00:11:26.029Z,14.00
2022-08-30T00:13:54.867Z,14.00
2022-08-30T00:16:24.161Z,13.90
2022-08-30T00:18:52.374Z,14.00
2022-08-30T00:21:20.043Z,14.00
2022-08-30T00:23:47.570Z,14.00
2022-08-30T00:26:15.162Z,13.90
2022-08-30T00:28:42.723Z,13.90
2022-08-30T00:31:10.618Z,13.90
2022-08-30T00:33:43.437Z,13.90
2022-08-30T00:36:11.029Z,14.00
2022-08-30T00:38:38.585Z,14.00
2022-08-30T00:41:06.692Z,14.00
2022-08-30T00:43:36.659Z,13.90
2022-08-30T00:46:08.555Z,13.90
2022-08-30T00:48:43.062Z,13.80
2022-08-30T00:51:14.141Z,13.90
2022-08-30T00:53:46.476Z,13.90
2022-08-30T00:56:14.543Z,13.80
2022-08-30T00:58:46.960Z,13.90
2022-08-30T01:01:14.701Z,13.90
2022-08-30T01:03:43.605Z,13.90
2022-08-30T01:06:11.591Z,13.90
2022-08-30T01:08:39.242Z,13.90
2022-08-30T01:11:07.449Z,13.90
2022-08-30T01:13:35.995Z,13.90
2022-08-30T01:16:04.307Z,13.80
2022-08-30T01:18:32.332Z,13.90
2022-08-30T01:21:23.014Z,13.90
2022-08-30T01:23:53.909Z,13.80
2022-08-30T01:26:22.588Z,13.70
2022-08-30T01:28:55.100Z,13.80
2022-08-30T01:31:22.830Z,13.80
2022-08-30T01:33:51.089Z,13.80
2022-08-30T01:36:20.441Z,13.80
2022-08-30T01:38:57.005Z,13.80
2022-08-30T01:41:33.550Z,13.80
2022-08-30T01:44:08.650Z,13.80
2022-08-30T01:46:43.686Z,13.80
2022-08-30T01:49:15.034Z,13.80
2022-08-30T01:51:43.396Z,13.90
2022-08-30T01:54:11.508Z,13.80
2022-08-30T01:56:39.356Z,13.80
2022-08-30T01:59:07.250Z,13.80
2022-08-30T02:01:37.200Z,13.80
2022-08-30T02:04:06.268Z,13.80
2022-08-30T02:06:34.771Z,13.70
2022-08-30T02:09:02.790Z,13.70
2022-08-30T02:11:30.603Z,13.70
2022-08-30T02:13:58.205Z,13.60
2022-08-30T02:16:26.125Z,13.70
2022-08-30T02:18:56.198Z,13.60
2022-08-30T02:21:25.173Z,13.60
2022-08-30T02:23:52.679Z,13.60
2022-08-30T02:26:20.917Z,13.60
2022-08-30T02:28:50.010Z,13.60
2022-08-30T02:31:22.625Z,13.60
2022-08-30T02:33:52.519Z,13.60
2022-08-30T02:36:21.275Z,13.70
2022-08-30T02:38:50.330Z,13.70
2022-08-30T02:41:19.789Z,13.70
2022-08-30T02:43:47.533Z,13.70
2022-08-30T02:46:15.156Z,13.60
2022-08-30T02:48:43.122Z,13.70
2022-08-30T02:51:13.944Z,13.60
2022-08-30T02:53:43.934Z,13.60
2022-08-30T02:56:13.642Z,13.60
2022-08-30T02:58:42.606Z,13.60
2022-08-30T03:01:13.728Z,13.60
2022-08-30T03:03:42.879Z,13.60
2022-08-30T03:06:10.842Z,13.60
2022-08-30T03:08:38.423Z,13.60
2022-08-30T03:11:07.090Z,13.60
2022-08-30T03:13:34.718Z,13.60
2022-08-30T03:16:02.487Z,13.50
2022-08-30T03:18:30.133Z,13.40
2022-08-30T03:20:57.600Z,13.40
2022-08-30T03:23:25.229Z,13.40
2022-08-30T03:25:53.604Z,13.40
2022-08-30T03:28:21.256Z,13.50
2022-08-30T03:30:48.880Z,13.40
2022-08-30T03:33:18.536Z,13.40
2022-08-30T03:35:48.155Z,13.40
2022-08-30T03:38:16.237Z,13.40
2022-08-30T03:40:43.926Z,13.30
2022-08-30T03:43:11.834Z,13.30
2022-08-30T03:45:40.987Z,13.20
2022-08-30T03:48:08.807Z,13.20
2022-08-30T03:50:37.091Z,13.30
2022-08-30T03:53:04.782Z,13.30
2022-08-30T03:55:32.416Z,13.30
2022-08-30T03:57:59.937Z,13.20
2022-08-30T04:00:27.713Z,13.20
2022-08-30T04:02:55.232Z,13.20
2022-08-30T04:05:22.975Z,13.20
2022-08-30T04:07:50.627Z,13.20
2022-08-30T04:10:21.152Z,13.20
2022-08-30T04:12:50.454Z,13.20
2022-08-30T04:15:19.543Z,13.20
2022-08-30T04:17:47.323Z,13.20
2022-08-30T04:20:15.201Z,13.20
2022-08-30T04:22:42.769Z,13.30
2022-08-30T04:25:14.173Z,13.30
2022-08-30T04:27:45.448Z,13.20
2022-08-30T04:30:15.353Z,13.20
2022-08-30T04:32:44.239Z,13.20
2022-08-30T04:35:13.334Z,13.20
2022-08-30T04:37:41.016Z,13.20
2022-08-30T04:40:10.257Z,13.20
2022-08-30T04:42:38.198Z,13.20
2022-08-30T04:45:09.147Z,13.10
2022-08-30T04:47:39.157Z,13.10
2022-08-30T04:50:09.056Z,13.10
2022-08-30T04:52:37.374Z,13.10
2022-08-30T04:55:06.099Z,13.10
2022-08-30T04:57:33.713Z,13.20
2022-08-30T05:00:01.991Z,13.10
2022-08-30T05:02:29.763Z,13.00
2022-08-30T05:05:16.156Z,13.00
2022-08-30T05:07:43.732Z,13.00
2022-08-30T05:10:11.748Z,13.00
2022-08-30T05:12:40.333Z,13.00
2022-08-30T05:15:09.093Z,13.10
2022-08-30T05:17:40.955Z,13.10
2022-08-30T05:20:11.410Z,13.10
2022-08-30T05:22:53.570Z,13.10
2022-08-30T05:25:27.441Z,13.10
2022-08-30T05:27:56.298Z,13.10
2022-08-30T05:30:25.550Z,13.10
2022-08-30T05:32:54.188Z,13.10
2022-08-30T05:35:25.604Z,13.10
2022-08-30T05:37:54.246Z,13.10
2022-08-30T05:40:22.559Z,13.10
2022-08-30T05:42:50.622Z,13.10
2022-08-30T05:45:18.604Z,13.10
2022-08-30T05:47:47.679Z,13.10
2022-08-30T05:50:15.247Z,13.10
2022-08-30T05:52:44.213Z,13.10
2022-08-30T05:55:12.562Z,13.10
2022-08-30T05:57:40.947Z,13.10
2022-08-30T06:00:15.009Z,13.10
2022-08-30T06:02:43.323Z,13.20
2022-08-30T06:05:14.203Z,13.10
2022-08-30T06:07:43.596Z,13.10
2022-08-30T06:10:12.539Z,13.20
2022-08-30T06:12:40.376Z,13.20
2022-08-30T06:15:08.524Z,13.10
2022-08-30T06:17:36.528Z,13.10
2022-08-30T06:20:04.526Z,13.10
2022-08-30T06:22:32.148Z,13.10
2022-08-30T06:24:59.646Z,13.00
2022-08-30T06:27:27.400Z,13.00
2022-08-30T06:29:54.987Z,13.00
2022-08-30T06:32:22.745Z,13.10
2022-08-30T06:34:50.260Z,13.10
2022-08-30T06:37:29.804Z,13.20
2022-08-30T06:39:58.973Z,13.20
2022-08-30T06:42:31.955Z,13.30
2022-08-30T06:45:10.606Z,13.40
2022-08-30T06:47:40.102Z,13.40
2022-08-30T06:50:12.131Z,13.50
2022-08-30T06:52:42.346Z,13.50
2022-08-30T06:55:13.546Z,13.50
2022-08-30T06:57:41.442Z,13.50
2022-08-30T07:00:11.310Z,13.60
2022-08-30T07:02:39.695Z,13.60
2022-08-30T07:05:08.860Z,13.70
2022-08-30T07:07:36.444Z,13.60
2022-08-30T07:10:06.872Z,13.60
2022-08-30T07:12:35.077Z,13.70
2022-08-30T07:15:05.185Z,13.70
2022-08-30T07:17:53.229Z,13.80
2022-08-30T07:20:21.685Z,13.80
2022-08-30T07:22:49.232Z,13.80
2022-08-30T07:25:16.905Z,13.80
2022-08-30T07:27:47.695Z,13.80
2022-08-30T07:30:15.246Z,13.80
2022-08-30T07:32:42.786Z,13.80
2022-08-30T07:35:10.622Z,13.80
2022-08-30T07:37:38.307Z,13.80
2022-08-30T07:40:06.223Z,13.80
2022-08-30T07:42:34.019Z,13.90
2022-08-30T07:45:03.290Z,13.90
2022-08-30T07:47:31.319Z,13.80
2022-08-30T07:50:00.925Z,13.80
2022-08-30T07:52:30.827Z,13.90
2022-08-30T07:54:59.363Z,14.00
2022-08-30T07:57:26.990Z,14.00
2022-08-30T07:59:54.545Z,14.00
2022-08-30T08:02:22.155Z,14.10
2022-08-30T08:04:49.750Z,14.10
2022-08-30T08:07:17.427Z,14.10
2022-08-30T08:09:45.191Z,14.20
2022-08-30T08:12:12.787Z,14.20
2022-08-30T08:14:41.377Z,14.20
2022-08-30T08:17:09.418Z,14.20
2022-08-30T08:19:37.058Z,14.20
2022-08-30T08:22:20.181Z,14.30
2022-08-30T08:24:49.351Z,14.30
2022-08-30T08:27:17.297Z,14.20
2022-08-30T08:29:44.831Z,14.20
2022-08-30T08:32:12.447Z,14.30
2022-08-30T08:34:41.513Z,14.30
2022-08-30T08:37:09.158Z,14.30
2022-08-30T08:39:37.177Z,14.30
2022-08-30T08:42:22.766Z,14.20
2022-08-30T08:45:28.767Z,14.30
2022-08-30T08:48:06.941Z,14.30
2022-08-30T08:50:34.483Z,14.30
2022-08-30T08:53:50.703Z,14.40
2022-08-30T08:56:21.991Z,14.50
2022-08-30T08:58:55.106Z,14.50
2022-08-30T09:01:26.343Z,14.60
2022-08-30T09:03:55.669Z,14.70
2022-08-30T09:06:50.275Z,14.80
2022-08-30T09:09:23.745Z,14.70
2022-08-30T09:11:51.407Z,14.70
2022-08-30T09:14:34.429Z,14.90
2022-08-30T09:17:14.194Z,15.00
2022-08-30T09:19:52.395Z,15.10
2022-08-30T09:22:39.210Z,15.30
2022-08-30T09:25:20.598Z,15.10
2022-08-30T09:27:50.402Z,15.00
2022-08-30T09:30:21.336Z,14.90
2022-08-30T09:33:03.231Z,14.90
2022-08-30T09:35:43.843Z,14.80
2022-08-30T09:38:18.264Z,14.90
2022-08-30T09:40:50.634Z,14.90
2022-08-30T09:43:18.603Z,15.00
2022-08-30T09:46:09.169Z,15.10
2022-08-30T09:48:40.674Z,15.10
2022-08-30T09:54:18.291Z,15.00
2022-08-30T09:56:58.418Z,15.00
2022-08-30T09:59:41.513Z,14.80
2022-08-30T10:02:45.144Z,14.80
2022-08-30T10:05:47.149Z,14.80
2022-08-30T10:08:29.759Z,14.80
2022-08-30T10:11:05.934Z,14.70
2022-08-30T10:13:42.517Z,14.70
2022-08-30T10:16:36.224Z,14.70
2022-08-30T10:19:11.361Z,14.80
2022-08-30T10:21:45.495Z,14.80
2022-08-30T10:24:21.839Z,14.90
2022-08-30T10:26:56.427Z,15.00
2022-08-30T10:29:34.362Z,15.00
2022-08-30T10:32:20.775Z,15.00
2022-08-30T10:35:03.754Z,15.00
2022-08-30T10:37:35.036Z,15.00
2022-08-30T10:40:34.398Z,14.90
2022-08-30T10:43:13.771Z,14.80
2022-08-30T10:45:45.255Z,14.70
2022-08-30T10:48:38.021Z,14.70
2022-08-30T10:51:17.111Z,14.50
2022-08-30T10:53:55.057Z,14.50
2022-08-30T10:56:26.962Z,14.60
2022-08-30T10:58:55.231Z,14.60
2022-08-30T11:01:47.287Z,14.70
2022-08-30T11:04:56.767Z,14.70
2022-08-30T11:07:48.537Z,14.90
2022-08-30T11:10:54.437Z,14.80
2022-08-30T11:13:25.365Z,14.90
2022-08-30T11:16:04.245Z,14.90
2022-08-30T11:18:50.975Z,14.90
2022-08-30T11:21:24.914Z,15.00
2022-08-30T11:24:02.476Z,14.90
2022-08-30T11:26:51.527Z,14.90
2022-08-30T11:29:37.971Z,14.90
2022-08-30T11:32:17.308Z,15.10
2022-08-30T11:34:45.087Z,15.10
2022-08-30T11:37:37.449Z,15.10
2022-08-30T11:40:49.328Z,15.00
2022-08-30T11:43:35.127Z,15.00
2022-08-30T11:46:28.306Z,15.00
2022-08-30T11:49:14.350Z,15.00
2022-08-30T11:55:22.424Z,15.00
2022-08-30T11:57:58.739Z,14.90
2022-08-30T12:00:34.371Z,15.00
2022-08-30T12:03:07.600Z,15.20
2022-08-30T12:05:38.622Z,15.10
2022-08-30T12:08:31.895Z,15.10
2022-08-30T12:11:00.060Z,15.10
2022-08-30T12:13:35.057Z,15.00
2022-08-30T12:16:35.000Z,15.00
2022-08-30T12:19:18.243Z,14.90
2022-08-30T12:21:57.022Z,14.90
2022-08-30T12:24:40.175Z,14.90
2022-08-30T12:27:27.152Z,14.80
2022-08-30T12:30:06.541Z,14.70
2022-08-30T12:32:43.173Z,14.70
2022-08-30T12:35:23.757Z,14.70
2022-08-30T12:38:03.674Z,14.80
2022-08-30T12:40:34.495Z,14.80
2022-08-30T12:43:07.797Z,14.80
2022-08-30T12:45:44.148Z,14.70
2022-08-30T12:48:17.928Z,14.80
2022-08-30T12:50:56.529Z,14.70
2022-08-30T12:53:36.236Z,14.80
2022-08-30T12:56:05.668Z,14.80
2022-08-30T12:58:52.298Z,14.80
2022-08-30T13:01:32.484Z,14.70
2022-08-30T13:04:22.122Z,14.60
2022-08-30T13:06:54.772Z,14.60
2022-08-30T13:09:32.461Z,14.50
2022-08-30T13:12:02.950Z,14.60
2022-08-30T13:14:35.663Z,14.50
2022-08-30T13:17:28.326Z,14.50
2022-08-30T13:20:05.502Z,14.60
2022-08-30T13:22:38.569Z,14.70
2022-08-30T13:25:09.405Z,14.70
2022-08-30T13:27:39.381Z,14.70
2022-08-30T13:30:14.609Z,14.80
2022-08-30T13:32:43.080Z,14.80
2022-08-30T13:35:12.122Z,14.90
2022-08-30T13:37:50.574Z,15.00
2022-08-30T13:40:21.327Z,15.00
2022-08-30T13:42:50.231Z,15.10
2022-08-30T13:48:07.760Z,15.00
2022-08-30T13:50:35.300Z,15.10
2022-08-30T13:53:02.879Z,15.30
2022-08-30T13:55:30.515Z,15.20
2022-08-30T13:57:58.287Z,15.20
2022-08-30T14:00:26.590Z,15.30
2022-08-30T14:03:00.009Z,15.20
2022-08-30T14:11:18.937Z,15.10
2022-08-30T14:16:38.027Z,15.30
2022-08-30T14:19:07.311Z,15.10
2022-08-30T14:21:36.193Z,15.00
2022-08-30T14:24:06.550Z,14.90
2022-08-30T14:26:38.793Z,14.80
2022-08-30T14:29:11.285Z,14.90
2022-08-30T14:31:40.613Z,15.00
2022-08-30T14:34:11.027Z,15.10
2022-08-30T14:36:42.852Z,15.00
2022-08-30T14:39:14.642Z,15.10
2022-08-30T14:41:48.405Z,14.90
2022-08-30T14:44:18.479Z,14.90
2022-08-30T14:46:46.436Z,14.90
2022-08-30T14:49:15.540Z,15.00
2022-08-30T14:51:46.315Z,15.00
2022-08-30T14:54:14.909Z,15.00
2022-08-30T14:56:42.866Z,15.00
2022-08-30T14:59:10.988Z,15.00
2022-08-30T15:01:41.721Z,15.00
2022-08-30T15:04:10.492Z,15.00
2022-08-30T15:06:40.916Z,15.00
2022-08-30T15:09:11.421Z,15.00
2022-08-30T15:11:39.132Z,15.20
2022-08-30T15:14:07.151Z,15.10
2022-08-30T15:16:36.977Z,14.90
2022-08-30T15:19:06.884Z,14.80
2022-08-30T15:21:40.152Z,14.90
2022-08-30T15:24:11.455Z,15.00
2022-08-30T15:26:41.807Z,15.00
2022-08-30T15:29:14.643Z,15.10
2022-08-30T15:31:44.086Z,15.00
2022-08-30T15:34:16.034Z,15.00
2022-08-30T15:36:44.511Z,14.90
2022-08-30T15:39:13.718Z,14.90
2022-08-30T15:41:44.424Z,14.90
2022-08-30T15:44:13.067Z,14.90
2022-08-30T15:46:44.032Z,14.90
2022-08-30T15:49:14.345Z,15.00
2022-08-30T15:51:45.792Z,15.00
2022-08-30T15:54:17.546Z,15.00
2022-08-30T15:56:45.994Z,14.80
2022-08-30T15:59:18.709Z,14.90
2022-08-30T16:01:47.656Z,14.80
2022-08-30T16:04:17.232Z,14.80
2022-08-30T16:06:46.976Z,14.80
2022-08-30T16:09:14.874Z,14.80
2022-08-30T16:11:42.654Z,14.90
2022-08-30T16:14:11.575Z,15.00
2022-08-30T16:16:41.002Z,14.90
2022-08-30T16:19:09.436Z,14.90
2022-08-30T16:21:39.588Z,14.90
2022-08-30T16:24:10.743Z,14.90
2022-08-30T16:26:43.109Z,14.90
2022-08-30T16:29:12.565Z,14.80
2022-08-30T16:31:40.800Z,14.80
2022-08-30T16:34:08.314Z,14.70
2022-08-30T16:36:36.108Z,14.70
2022-08-30T16:39:05.949Z,14.60
2022-08-30T16:41:37.406Z,14.70
2022-08-30T16:44:06.371Z,14.70
2022-08-30T16:46:34.799Z,14.70
2022-08-30T16:49:03.333Z,14.70
2022-08-30T16:51:33.201Z,14.50
2022-08-30T16:54:04.635Z,14.60
2022-08-30T16:56:33.722Z,14.50
2022-08-30T16:59:03.186Z,14.40
2022-08-30T17:01:35.031Z,14.40
2022-08-30T17:04:04.248Z,14.30
2022-08-30T17:06:32.850Z,14.40
2022-08-30T17:09:00.610Z,14.40
2022-08-30T17:11:28.600Z,14.40
2022-08-30T17:13:56.237Z,14.40
2022-08-30T17:16:28.006Z,14.40
2022-08-30T17:19:00.481Z,14.40
2022-08-30T17:21:29.972Z,14.40
2022-08-30T17:26:46.492Z,14.30
2022-08-30T17:29:15.807Z,14.40
2022-08-30T17:31:46.409Z,14.30
2022-08-30T17:34:21.876Z,14.30
2022-08-30T17:36:51.193Z,14.20
2022-08-30T17:39:19.019Z,14.30
2022-08-30T17:41:50.571Z,14.30
2022-08-30T17:44:20.655Z,14.20
2022-08-30T17:46:48.379Z,14.20
2022-08-30T17:49:16.168Z,14.20
2022-08-30T17:51:45.695Z,14.20
2022-08-30T17:54:15.907Z,14.30
2022-08-30T17:56:44.373Z,14.20
2022-08-30T17:59:13.267Z,14.10
2022-08-30T18:01:42.290Z,14.10
2022-08-30T18:04:11.541Z,14.10
2022-08-30T18:06:39.910Z,14.10
2022-08-30T18:09:08.570Z,14.10
2022-08-30T18:11:39.828Z,14.10
2022-08-30T18:14:10.949Z,14.10
2022-08-30T18:16:50.216Z,14.10
2022-08-30T18:19:26.627Z,14.10
2022-08-30T18:21:55.804Z,14.10
2022-08-30T18:24:24.304Z,14.10
2022-08-30T18:26:54.692Z,14.10
2022-08-30T18:29:29.305Z,14.10
2022-08-30T18:32:03.225Z,14.00
2022-08-30T18:34:31.845Z,14.10
2022-08-30T18:37:01.204Z,14.20
2022-08-30T18:39:28.963Z,14.10
2022-08-30T18:42:04.309Z,14.10
2022-08-30T18:44:35.301Z,14.10
2022-08-30T18:47:05.653Z,14.10
2022-08-30T18:49:35.220Z,14.10
2022-08-30T18:52:06.622Z,14.20
2022-08-30T18:54:41.812Z,14.20
2022-08-30T18:57:11.135Z,14.20
2022-08-30T18:59:42.047Z,14.20
2022-08-30T19:02:13.801Z,14.20
2022-08-30T19:04:43.152Z,14.00
2022-08-30T19:07:13.530Z,14.00
2022-08-30T19:09:43.360Z,14.00
2022-08-30T19:12:13.830Z,13.90
2022-08-30T19:14:41.525Z,13.80
2022-08-30T19:17:09.186Z,13.80
2022-08-30T19:19:46.370Z,13.80
2022-08-30T19:22:21.596Z,13.90
2022-08-30T19:24:50.476Z,13.80
2022-08-30T19:27:23.131Z,13.80
2022-08-30T19:30:17.301Z,13.80
2022-08-30T19:32:48.652Z,13.80
2022-08-30T19:35:17.864Z,13.80
2022-08-30T19:37:47.205Z,13.80
2022-08-30T19:40:17.274Z,13.70
2022-08-30T19:42:46.128Z,13.80
2022-08-30T19:45:18.345Z,13.80
2022-08-30T19:47:47.093Z,13.70
2022-08-30T19:50:15.876Z,13.70
2022-08-30T19:52:45.642Z,13.70
2022-08-30T19:55:15.464Z,13.70
2022-08-30T19:57:44.266Z,13.70
2022-08-30T20:00:16.690Z,13.70
2022-08-30T20:02:44.784Z,13.70
2022-08-30T20:05:18.535Z,13.70
2022-08-30T20:07:46.095Z,13.60
2022-08-30T20:10:16.009Z,13.60
2022-08-30T20:12:45.023Z,13.50
2022-08-30T20:15:15.797Z,13.50
2022-08-30T20:18:03.082Z,13.40
2022-08-30T20:20:33.661Z,13.50
2022-08-30T20:23:05.903Z,13.50
2022-08-30T20:24:23.738Z,14.40
2022-08-30T20:25:36.293Z,13.50
2022-08-30T20:28:04.927Z,13.50
2022-08-30T20:30:33.341Z,13.50
2022-08-30T20:33:06.882Z,13.50
2022-08-30T20:35:36.518Z,13.50
2022-08-30T20:38:06.538Z,13.40
2022-08-30T20:40:37.110Z,13.50
2022-08-30T20:43:06.295Z,13.40
2022-08-30T20:45:34.704Z,13.40
2022-08-30T20:48:03.236Z,13.40
2022-08-30T20:50:31.007Z,13.30
2022-08-30T20:52:58.733Z,13.30
2022-08-30T20:55:26.608Z,13.30
2022-08-30T20:57:54.172Z,13.40
2022-08-30T21:00:21.857Z,13.40
2022-08-30T21:02:49.861Z,13.50
2022-08-30T21:05:18.332Z,13.40
2022-08-30T21:07:46.669Z,13.40
2022-08-30T21:10:21.197Z,13.40
2022-08-30T21:12:50.903Z,13.40
2022-08-30T21:15:36.923Z,13.40
2022-08-30T21:18:05.995Z,13.40
2022-08-30T21:20:33.541Z,13.30
2022-08-30T21:23:01.111Z,13.30
2022-08-30T21:25:29.168Z,13.30
2022-08-30T21:27:56.687Z,13.20
2022-08-30T21:30:24.786Z,13.20
2022-08-30T21:32:52.465Z,13.20
2022-08-30T21:35:38.687Z,13.20
2022-08-30T21:38:08.935Z,13.10
2022-08-30T21:40:36.846Z,13.10
2022-08-30T21:43:06.018Z,13.10
2022-08-30T21:45:40.644Z,13.10
2022-08-30T21:48:09.087Z,13.10
2022-08-30T21:50:39.889Z,13.20
2022-08-30T21:53:07.614Z,13.20
2022-08-30T21:55:35.149Z,13.10
2022-08-30T21:58:03.527Z,13.10
2022-08-30T22:00:33.672Z,13.10
2022-08-30T22:03:01.388Z,13.10
2022-08-30T22:05:28.898Z,13.10
2022-08-30T22:07:56.610Z,13.20
2022-08-30T22:10:24.266Z,13.20
2022-08-30T22:12:51.885Z,13.20
2022-08-30T22:15:19.478Z,13.10
2022-08-30T22:17:47.170Z,13.10
2022-08-30T22:20:18.369Z,13.10
2022-08-30T22:22:46.354Z,13.00
2022-08-30T22:25:13.984Z,12.90
2022-08-30T22:27:41.529Z,13.00
2022-08-30T22:30:09.633Z,13.00
2022-08-30T22:32:38.299Z,12.90
2022-08-30T22:35:06.833Z,12.90
2022-08-30T22:37:34.890Z,13.10
2022-08-30T22:40:02.657Z,13.10
2022-08-30T22:42:30.315Z,13.00
2022-08-30T22:44:57.829Z,13.00
2022-08-30T22:47:25.406Z,13.00
2022-08-30T22:49:53.053Z,13.10
2022-08-30T22:52:21.289Z,13.10
2022-08-30T22:54:53.037Z,13.20
2022-08-30T22:57:20.706Z,13.10
2022-08-30T22:59:48.802Z,13.20
2022-08-30T23:02:16.353Z,13.10
2022-08-30T23:04:43.976Z,13.00
2022-08-30T23:07:11.478Z,13.10
2022-08-30T23:09:39.051Z,13.10
2022-08-30T23:12:06.777Z,13.00
2022-08-30T23:14:34.363Z,12.90
2022-08-30T23:17:01.858Z,12.90
2022-08-30T23:19:29.451Z,12.90
2022-08-30T23:21:57.470Z,12.90
2022-08-30T23:24:48.783Z,12.80
2022-08-30T23:27:35.073Z,12.80
2022-08-30T23:30:22.646Z,12.80
2022-08-30T23:33:08.998Z,12.80
2022-08-30T23:35:55.509Z,12.80
2022-08-30T23:38:41.397Z,12.80
2022-08-30T23:41:33.847Z,12.80
2022-08-30T23:44:20.594Z,12.90
2022-08-30T23:47:06.648Z,12.90
2022-08-30T23:49:52.845Z,12.90
2022-08-30T23:52:38.935Z,12.90
2022-08-30T23:55:26.497Z,13.00
2022-08-30T23:58:12.652Z,13.10
